Pagrindinis puslapis
METAR-TAF:

METAR-TAF

Oro uostai :

Abadanas, Iranas

platuma: 30-22N, ilguma: 048-15E, Aukštis: 3 m

Dabartinis oras

Ataskaita buvo paskelbta 30 minutes, ne 13:00 UTC
Vėjas 6 kt iš Vakarų/Šiaurės Vakarų
Temperatūra 24°C
Drėgmė 38%
Slėgis 1015 hPa
Matomumas 10 km arba daugiau
nėra debesų žemiau 1500 m ir nėra kamuolinių lietaus debesų

METAR: OIAA 281300Z 30006KT CAVOK 24/09 Q1015

Laikas: 17:00 (13:30 UTC)

Prognozė

Ataskaita buvo paskelbta 1 valandą ir 40 minutes, ne 11:50 UTC
Prognozė galioja nuo 28 metu 12 UTC su 29 metu 18 UTC
Vėjas 8 kt iš Vakarų/Šiaurės Vakarų
Matomumas: 6000 m
Tapsmas
nuo 28 metu 21 UTC su 28 metu 23 UTC
Matomumas: 4000 m
rūkana
Laikinai
nuo 28 metu 23 UTC su 29 metu 04 UTC
Matomumas: 1500 m
rūkana
Tapsmas
nuo 28 metu 07 UTC su 28 metu 09 UTC
Matomumas: 7000 m

TAF: OIAA 281150Z 2812/2918 30008KT 6000 NSC BECMG 2821/2823 4000 BR TEMPO 2823/2904 1500 BR BECMG 2807/2809 7000

Orai ataskaitas ir orų prognozės (METAR, TAF).

turimą stotys yra geltonos ir raudonos taškus žemėlapyje.

Perkelti pele per norėdami pamatyti stoties vardą.

Tada spustelėkite, norėdami matyti oro stebėjimo ir prognozės.

Norėdami pakeisti žemėlapį: spustelėkite ant žalios mygtukų su juodo kryžiaus žemyn,; žalią mygtuką su brūkšneliu, jei norite nutolinti; arba žalių rodyklių gretimoms žemėlapius.


METAR-TAF: